createdAt,value
2023-01-13T00:01:20.642Z,6.60
2023-01-13T00:04:23.469Z,6.57
2023-01-13T00:07:26.255Z,6.60
2023-01-13T00:10:34.403Z,6.70
2023-01-13T00:13:38.811Z,6.50
2023-01-13T00:16:41.649Z,6.17
2023-01-13T00:19:45.066Z,6.12
2023-01-13T00:22:47.907Z,5.75
2023-01-13T00:25:50.687Z,5.30
2023-01-13T00:29:00.476Z,5.43
2023-01-13T00:32:03.653Z,5.50
2023-01-13T00:35:07.389Z,5.87
2023-01-13T00:38:10.255Z,4.95
2023-01-13T00:41:17.142Z,4.90
2023-01-13T00:44:20.065Z,5.27
2023-01-13T00:47:23.764Z,4.47
2023-01-13T00:50:28.874Z,4.62
2023-01-13T00:53:37.276Z,4.78
2023-01-13T00:56:41.273Z,4.10
2023-01-13T00:59:44.369Z,3.87
2023-01-13T01:02:47.295Z,4.10
2023-01-13T01:05:50.281Z,3.92
2023-01-13T01:08:54.224Z,3.97
2023-01-13T01:11:57.069Z,3.65
2023-01-13T01:14:59.884Z,3.40
2023-01-13T01:18:02.707Z,3.37
2023-01-13T01:21:07.217Z,3.35
2023-01-13T01:24:10.369Z,2.92
2023-01-13T01:27:13.103Z,3.10
2023-01-13T01:30:16.085Z,2.83
2023-01-13T01:33:18.837Z,2.83
2023-01-13T01:36:23.330Z,2.85
2023-01-13T01:39:26.297Z,3.12
2023-01-13T01:42:47.707Z,3.12
2023-01-13T01:45:52.892Z,2.70
2023-01-13T01:49:30.345Z,2.80
2023-01-13T01:52:45.113Z,3.17
2023-01-13T01:55:47.998Z,2.80
2023-01-13T01:58:52.526Z,3.15
2023-01-13T02:01:55.489Z,3.10
2023-01-13T02:04:58.906Z,3.27
2023-01-13T02:08:02.075Z,3.00
2023-01-13T02:11:05.216Z,2.90
2023-01-13T02:14:31.044Z,2.47
2023-01-13T02:18:01.695Z,2.50
2023-01-13T02:21:10.937Z,2.30
2023-01-13T02:24:35.489Z,2.50
2023-01-13T02:28:13.617Z,2.67
2023-01-13T02:31:35.033Z,2.30
2023-01-13T02:34:45.432Z,2.33
2023-01-13T02:37:49.299Z,2.27
2023-01-13T02:41:21.298Z,2.10
2023-01-13T02:44:31.574Z,2.40
2023-01-13T02:47:37.766Z,2.10
2023-01-13T02:50:48.915Z,2.43
2023-01-13T02:53:58.089Z,2.40
2023-01-13T02:57:01.766Z,2.62
2023-01-13T03:00:06.875Z,2.12
2023-01-13T03:03:09.650Z,2.25
2023-01-13T03:06:18.545Z,1.83
2023-01-13T03:09:33.225Z,1.67
2023-01-13T03:13:00.126Z,2.08
2023-01-13T03:16:11.883Z,2.28
2023-01-13T03:19:25.868Z,2.80
2023-01-13T03:22:43.211Z,2.43
2023-01-13T03:26:33.910Z,2.43
2023-01-13T03:29:43.381Z,2.42
2023-01-13T03:32:50.128Z,2.20
2023-01-13T03:35:56.086Z,2.33
2023-01-13T03:39:07.972Z,2.33
2023-01-13T03:42:15.347Z,2.00
2023-01-13T03:45:18.440Z,2.22
2023-01-13T03:48:23.161Z,2.08
2023-01-13T03:51:28.428Z,2.20
2023-01-13T03:54:34.026Z,2.13
2023-01-13T03:57:42.409Z,2.33
2023-01-13T04:00:55.110Z,2.30
2023-01-13T04:03:58.020Z,2.33
2023-01-13T04:07:16.523Z,2.12
2023-01-13T04:10:41.484Z,2.30
2023-01-13T04:13:46.173Z,1.90
2023-01-13T04:16:49.240Z,1.90
2023-01-13T04:19:52.359Z,1.98
2023-01-13T04:22:55.209Z,2.05
2023-01-13T04:25:58.039Z,2.03
2023-01-13T04:29:01.096Z,1.70
2023-01-13T04:32:04.283Z,2.00
2023-01-13T04:35:08.672Z,1.50
2023-01-13T04:38:16.325Z,1.50
2023-01-13T04:41:19.242Z,1.60
2023-01-13T04:44:22.215Z,1.60
2023-01-13T04:47:25.128Z,1.60
2023-01-13T04:50:28.367Z,1.77
2023-01-13T04:53:31.189Z,1.80
2023-01-13T04:56:34.272Z,1.80
2023-01-13T04:59:37.103Z,1.93
2023-01-13T05:02:40.501Z,2.00
2023-01-13T05:05:43.620Z,1.77
2023-01-13T05:08:46.495Z,1.77
2023-01-13T05:12:07.901Z,1.80
2023-01-13T05:15:33.286Z,1.73
2023-01-13T05:18:36.149Z,1.60
2023-01-13T05:21:57.367Z,4.93
2023-01-13T05:25:18.583Z,11.73
2023-01-13T05:28:21.605Z,16.83
2023-01-13T05:31:24.540Z,13.27
2023-01-13T05:34:27.328Z,23.83
2023-01-13T05:37:30.273Z,8.40
2023-01-13T05:40:52.209Z,7.25
2023-01-13T05:43:55.130Z,8.77
2023-01-13T05:46:57.928Z,5.70
2023-01-13T05:50:00.868Z,4.40
2023-01-13T05:53:04.723Z,11.52
2023-01-13T05:56:08.435Z,10.60
2023-01-13T05:59:11.420Z,8.13
2023-01-13T06:02:14.249Z,6.63
2023-01-13T06:05:17.466Z,7.20
2023-01-13T06:08:20.417Z,5.20
2023-01-13T06:11:23.412Z,4.40
2023-01-13T06:14:40.302Z,5.47
2023-01-13T06:17:43.331Z,4.97
2023-01-13T06:20:47.568Z,4.78
2023-01-13T06:23:50.453Z,4.28
2023-01-13T06:26:53.374Z,6.03
2023-01-13T06:29:57.366Z,6.00
2023-01-13T06:33:02.205Z,6.87
2023-01-13T06:36:11.374Z,8.27
2023-01-13T06:39:19.350Z,7.30
2023-01-13T06:43:00.461Z,6.47
2023-01-13T06:46:03.471Z,5.47
2023-01-13T06:49:07.488Z,7.17
2023-01-13T06:52:10.364Z,6.07
2023-01-13T06:55:13.309Z,5.00
2023-01-13T06:58:16.383Z,4.87
2023-01-13T07:01:19.456Z,4.60
2023-01-13T07:04:22.528Z,5.43
2023-01-13T07:07:25.315Z,3.95
2023-01-13T07:10:28.130Z,3.80
2023-01-13T07:13:49.673Z,5.10
2023-01-13T07:16:53.979Z,3.00
2023-01-13T07:19:58.347Z,3.77
2023-01-13T07:23:01.555Z,2.97
2023-01-13T07:26:05.143Z,2.53
2023-01-13T07:29:08.189Z,3.40
2023-01-13T07:32:11.388Z,3.63
2023-01-13T07:35:14.394Z,5.40
2023-01-13T07:38:17.248Z,19.10
2023-01-13T07:41:38.689Z,17.83
2023-01-13T07:44:42.175Z,11.45
2023-01-13T07:47:45.163Z,7.27
2023-01-13T07:50:49.866Z,6.20
2023-01-13T07:53:52.909Z,6.47
2023-01-13T07:56:58.870Z,6.22
2023-01-13T08:00:01.774Z,6.95
2023-01-13T08:03:06.200Z,6.70
2023-01-13T08:06:10.320Z,6.57
2023-01-13T08:09:13.254Z,6.65
2023-01-13T08:12:34.508Z,8.23
2023-01-13T08:15:37.535Z,7.00
2023-01-13T08:18:40.938Z,6.87
2023-01-13T08:21:43.890Z,6.87
2023-01-13T08:24:46.826Z,6.80
2023-01-13T08:27:50.389Z,5.85
2023-01-13T08:30:54.472Z,4.95
2023-01-13T08:33:57.306Z,5.03
2023-01-13T08:37:00.320Z,4.77
2023-01-13T08:40:03.223Z,4.55
2023-01-13T08:43:06.708Z,4.53
2023-01-13T08:46:09.788Z,5.93
2023-01-13T08:49:12.873Z,7.37
2023-01-13T08:52:16.164Z,9.33
2023-01-13T08:55:20.163Z,7.60
2023-01-13T08:58:23.379Z,6.57
2023-01-13T09:01:27.119Z,6.15
2023-01-13T09:04:32.088Z,5.63
2023-01-13T09:07:36.328Z,6.07
2023-01-13T09:10:40.722Z,5.80
2023-01-13T09:13:43.786Z,5.22
2023-01-13T09:16:46.592Z,5.50
2023-01-13T09:19:50.297Z,5.17
2023-01-13T09:22:53.197Z,5.53
2023-01-13T09:25:56.096Z,6.05
2023-01-13T09:28:59.105Z,7.22
2023-01-13T09:32:02.019Z,6.75
2023-01-13T09:35:09.087Z,5.60
2023-01-13T09:38:44.641Z,6.20
2023-01-13T09:42:22.716Z,6.32
2023-01-13T09:50:50.768Z,5.43
2023-01-13T09:54:19.351Z,5.60
2023-01-13T09:57:22.609Z,5.63
2023-01-13T10:00:33.336Z,5.30
2023-01-13T10:03:37.227Z,6.05
2023-01-13T10:06:42.741Z,5.97
2023-01-13T10:09:49.943Z,6.20
2023-01-13T10:13:11.301Z,6.50
2023-01-13T10:16:27.232Z,7.45
2023-01-13T10:19:43.151Z,6.97
2023-01-13T10:22:55.482Z,7.30
2023-01-13T10:26:09.135Z,7.70
2023-01-13T10:29:30.355Z,7.43
2023-01-13T10:32:36.603Z,7.00
2023-01-13T10:35:58.320Z,7.35
2023-01-13T10:39:10.989Z,8.40
2023-01-13T10:42:18.633Z,7.80
2023-01-13T10:45:26.157Z,6.90
2023-01-13T10:48:43.727Z,6.80
2023-01-13T10:51:46.955Z,6.05
2023-01-13T10:54:59.091Z,4.87
2023-01-13T10:58:22.091Z,4.77
2023-01-13T11:01:28.448Z,4.87
2023-01-13T11:05:01.253Z,5.22
2023-01-13T11:08:05.439Z,5.00
2023-01-13T11:11:34.798Z,6.00
2023-01-13T11:14:40.776Z,6.00
2023-01-13T11:17:53.881Z,5.33
2023-01-13T11:20:58.820Z,4.82
2023-01-13T11:24:18.422Z,3.95
2023-01-13T11:27:41.423Z,3.62
2023-01-13T11:30:53.571Z,3.53
2023-01-13T11:34:09.157Z,3.53
2023-01-13T11:37:23.730Z,4.28
2023-01-13T11:40:34.064Z,4.68
2023-01-13T11:43:46.905Z,5.30
2023-01-13T11:46:51.855Z,4.23
2023-01-13T11:49:54.873Z,4.70
2023-01-13T11:53:35.988Z,4.20
2023-01-13T11:57:03.047Z,3.83
2023-01-13T12:00:21.072Z,5.22
2023-01-13T12:03:31.189Z,4.10
2023-01-13T12:06:39.502Z,4.10
2023-01-13T12:10:13.349Z,3.90
2023-01-13T12:13:45.360Z,4.30
2023-01-13T12:16:49.775Z,4.57
2023-01-13T12:19:52.619Z,3.73
2023-01-13T12:22:57.274Z,4.50
2023-01-13T12:26:05.919Z,4.78
2023-01-13T12:29:21.518Z,5.00
2023-01-13T12:32:34.714Z,5.78
2023-01-13T12:35:46.671Z,5.80
2023-01-13T12:39:24.805Z,4.90
2023-01-13T12:43:03.439Z,4.65
2023-01-13T12:46:22.189Z,5.10
2023-01-13T12:49:33.127Z,5.10
2023-01-13T12:52:46.130Z,5.60
2023-01-13T12:55:52.401Z,5.90
2023-01-13T12:59:21.937Z,5.68
2023-01-13T13:02:32.007Z,6.05
2023-01-13T13:06:06.443Z,6.28
2023-01-13T13:09:50.043Z,6.80
2023-01-13T13:13:17.353Z,7.30
2023-01-13T13:16:25.990Z,6.43
2023-01-13T13:19:31.835Z,6.95
2023-01-13T13:22:50.734Z,6.95
2023-01-13T13:26:05.098Z,7.00
2023-01-13T13:29:10.779Z,7.27
2023-01-13T13:32:45.861Z,6.72
2023-01-13T13:36:33.527Z,6.97
2023-01-13T13:39:54.861Z,7.05
2023-01-13T13:43:16.712Z,10.70
2023-01-13T13:46:48.187Z,8.50
2023-01-13T13:49:54.623Z,8.57
2023-01-13T13:53:06.516Z,8.85
2023-01-13T13:56:19.287Z,8.35
2023-01-13T13:59:24.819Z,9.17
2023-01-13T14:02:33.128Z,9.77
2023-01-13T14:05:37.699Z,9.88
2023-01-13T14:08:46.699Z,8.63
2023-01-13T14:12:01.568Z,8.18
2023-01-13T14:15:04.827Z,8.60
2023-01-13T14:18:18.205Z,18.00
2023-01-13T14:21:25.374Z,38.00
2023-01-13T14:24:28.616Z,43.97
2023-01-13T14:27:31.417Z,84.80
2023-01-13T14:30:34.796Z,60.53
2023-01-13T14:33:47.085Z,68.70
2023-01-13T14:36:51.507Z,48.87
2023-01-13T14:39:54.576Z,27.65
2023-01-13T14:43:01.031Z,9.63
2023-01-13T14:46:04.122Z,7.27
2023-01-13T14:49:37.134Z,6.73
2023-01-13T14:52:51.523Z,5.70
2023-01-13T14:55:58.921Z,5.68
2023-01-13T14:59:34.411Z,6.50
2023-01-13T15:02:59.055Z,5.60
2023-01-13T15:06:02.086Z,5.17
2023-01-13T15:09:16.051Z,6.10
2023-01-13T15:12:33.697Z,8.13
2023-01-13T15:15:38.057Z,8.15
2023-01-13T15:18:41.662Z,8.00
2023-01-13T15:21:44.608Z,9.37
2023-01-13T15:24:48.326Z,7.62
2023-01-13T15:27:52.891Z,9.52
2023-01-13T15:31:00.853Z,10.13
2023-01-13T15:34:04.141Z,8.13
2023-01-13T15:37:10.922Z,7.70
2023-01-13T15:40:21.439Z,6.22
2023-01-13T15:43:43.195Z,5.93
2023-01-13T15:46:46.157Z,5.20
2023-01-13T15:49:50.374Z,5.73
2023-01-13T15:52:55.337Z,5.17
2023-01-13T15:55:58.999Z,15.93
2023-01-13T15:59:02.485Z,20.00
2023-01-13T16:02:12.816Z,15.70
2023-01-13T16:05:15.903Z,14.63
2023-01-13T16:08:20.605Z,15.73
2023-01-13T16:11:23.816Z,16.35
2023-01-13T16:14:27.218Z,12.65
2023-01-13T16:17:31.256Z,12.48
2023-01-13T16:20:37.106Z,11.40
2023-01-13T16:23:40.357Z,15.03
2023-01-13T16:30:58.735Z,13.52
2023-01-13T16:34:18.002Z,15.88
2023-01-13T16:37:32.833Z,14.77
2023-01-13T16:40:47.163Z,13.07
2023-01-13T16:43:56.663Z,13.73
2023-01-13T16:47:21.688Z,11.02
2023-01-13T16:50:36.766Z,10.35
2023-01-13T16:53:47.791Z,15.40
2023-01-13T16:56:57.963Z,16.77
2023-01-13T17:00:10.250Z,17.92
2023-01-13T17:03:20.801Z,18.83
2023-01-13T17:06:38.821Z,19.65
2023-01-13T17:09:42.459Z,16.97
2023-01-13T17:12:46.091Z,13.60
2023-01-13T17:15:49.220Z,14.65
2023-01-13T17:18:53.355Z,14.70
2023-01-13T17:21:56.527Z,15.05
2023-01-13T17:24:59.619Z,11.33
2023-01-13T17:28:02.602Z,11.90
2023-01-13T17:31:07.868Z,13.30
2023-01-13T17:34:13.855Z,12.70
2023-01-13T17:37:21.369Z,14.23
2023-01-13T17:40:29.472Z,13.60
2023-01-13T17:43:32.912Z,14.53
2023-01-13T17:46:35.900Z,19.45
2023-01-13T17:49:39.120Z,18.17
2023-01-13T17:52:43.650Z,14.63
2023-01-13T17:55:56.784Z,16.33
2023-01-13T17:59:01.630Z,14.90
2023-01-13T18:02:07.389Z,18.40
2023-01-13T18:05:10.702Z,16.20
2023-01-13T18:08:13.863Z,15.05
2023-01-13T18:11:21.625Z,15.07
2023-01-13T18:14:26.081Z,14.97
2023-01-13T18:17:28.932Z,14.95
2023-01-13T18:20:54.916Z,14.40
2023-01-13T18:24:18.448Z,14.15
2023-01-13T18:27:27.678Z,11.57
2023-01-13T18:30:34.244Z,11.17
2023-01-13T18:33:38.415Z,11.35
2023-01-13T18:36:54.112Z,11.05
2023-01-13T18:40:02.859Z,9.93
2023-01-13T18:43:25.800Z,10.90
2023-01-13T18:46:32.901Z,13.03
2023-01-13T18:49:45.030Z,10.52
2023-01-13T18:52:49.179Z,10.75
2023-01-13T18:55:55.273Z,12.55
2023-01-13T18:58:58.327Z,11.23
2023-01-13T19:02:02.969Z,11.47
2023-01-13T19:05:07.609Z,11.40
2023-01-13T19:08:11.597Z,14.02
2023-01-13T19:11:15.205Z,17.92
2023-01-13T19:14:37.970Z,18.30
2023-01-13T19:17:48.795Z,15.67
2023-01-13T19:21:04.812Z,16.60
2023-01-13T19:24:10.946Z,19.52
2023-01-13T19:27:30.045Z,18.73
2023-01-13T19:30:34.367Z,18.40
2023-01-13T19:33:52.884Z,18.13
2023-01-13T19:40:37.604Z,15.23
2023-01-13T19:44:00.446Z,14.45
2023-01-13T19:47:39.650Z,15.83
2023-01-13T19:54:48.233Z,17.25
2023-01-13T19:57:51.821Z,15.70
2023-01-13T20:00:57.386Z,17.02
2023-01-13T20:04:05.168Z,17.37
2023-01-13T20:07:08.378Z,14.63
2023-01-13T20:10:13.477Z,15.07
2023-01-13T20:13:17.094Z,14.05
2023-01-13T20:16:20.341Z,15.10
2023-01-13T20:19:23.650Z,15.83
2023-01-13T20:22:27.196Z,18.37
2023-01-13T20:25:30.452Z,15.80
2023-01-13T20:28:37.315Z,14.38
2023-01-13T20:31:40.698Z,13.93
2023-01-13T20:34:43.537Z,14.23
2023-01-13T20:37:46.473Z,14.20
2023-01-13T20:40:59.217Z,14.10
2023-01-13T20:44:03.218Z,13.75
2023-01-13T20:47:07.641Z,13.48
2023-01-13T20:50:11.388Z,13.27
2023-01-13T20:53:14.752Z,13.53
2023-01-13T20:56:23.543Z,12.43
2023-01-13T20:59:27.202Z,15.88
2023-01-13T21:02:30.288Z,15.35
2023-01-13T21:05:38.838Z,16.40
2023-01-13T21:08:43.001Z,17.07
2023-01-13T21:12:10.706Z,15.85
2023-01-13T21:15:17.446Z,15.13
2023-01-13T21:18:38.741Z,16.45
2023-01-13T21:21:45.381Z,17.33
2023-01-13T21:24:48.874Z,20.57
2023-01-13T21:27:58.848Z,15.90
2023-01-13T21:31:12.474Z,14.55
2023-01-13T21:34:17.603Z,17.20
2023-01-13T21:37:24.998Z,19.30
2023-01-13T21:40:31.169Z,20.50
2023-01-13T21:43:56.945Z,18.25
2023-01-13T21:47:21.119Z,19.12
2023-01-13T21:50:27.459Z,17.08
2023-01-13T21:53:33.172Z,19.33
2023-01-13T21:56:36.100Z,17.43
2023-01-13T21:59:39.233Z,16.60
2023-01-13T22:02:48.359Z,14.57
2023-01-13T22:05:56.794Z,15.25
2023-01-13T22:09:01.314Z,15.53
2023-01-13T22:12:04.601Z,17.50
2023-01-13T22:15:08.625Z,15.45
2023-01-13T22:18:11.847Z,16.52
2023-01-13T22:21:14.945Z,16.95
2023-01-13T22:24:17.884Z,16.83
2023-01-13T22:27:23.738Z,15.17
2023-01-13T22:30:32.127Z,14.77
2023-01-13T22:33:35.219Z,14.10
2023-01-13T22:36:38.327Z,12.65
2023-01-13T22:39:41.286Z,11.50
2023-01-13T22:42:44.166Z,12.87
2023-01-13T22:45:57.946Z,13.00
2023-01-13T22:49:01.855Z,12.20
2023-01-13T22:52:06.343Z,11.80
2023-01-13T22:55:10.028Z,13.20
2023-01-13T22:58:13.776Z,12.63
2023-01-13T23:01:17.751Z,13.15
2023-01-13T23:04:20.786Z,12.20
2023-01-13T23:07:23.699Z,11.93
2023-01-13T23:10:27.701Z,11.63
2023-01-13T23:13:30.908Z,11.90
2023-01-13T23:16:37.259Z,11.75
2023-01-13T23:19:40.301Z,13.43
2023-01-13T23:22:43.170Z,11.75
2023-01-13T23:25:55.480Z,11.23
2023-01-13T23:29:05.884Z,10.63
2023-01-13T23:32:08.765Z,10.52
2023-01-13T23:35:11.629Z,10.25
2023-01-13T23:38:14.492Z,10.65
2023-01-13T23:41:20.287Z,11.10
2023-01-13T23:44:23.311Z,10.43
2023-01-13T23:47:26.180Z,11.00
2023-01-13T23:50:30.169Z,10.57
2023-01-13T23:53:40.096Z,10.77
2023-01-13T23:56:43.405Z,10.70
2023-01-13T23:59:46.749Z,10.60
